createdAt,value
2018-03-17T00:00:33.150Z,7.60
2018-03-17T00:03:00.602Z,7.30
2018-03-17T00:05:28.047Z,7.80
2018-03-17T00:10:30.262Z,4.70
2018-03-17T00:12:57.712Z,3.53
2018-03-17T00:15:25.166Z,5.67
2018-03-17T00:17:52.620Z,5.50
2018-03-17T00:20:20.065Z,5.60
2018-03-17T00:22:47.509Z,6.07
2018-03-17T00:25:15.734Z,5.60
2018-03-17T00:27:43.182Z,4.70
2018-03-17T00:30:10.628Z,6.43
2018-03-17T00:32:38.090Z,4.83
2018-03-17T00:35:05.544Z,11.10
2018-03-17T00:37:32.988Z,5.73
2018-03-17T00:40:00.442Z,8.63
2018-03-17T00:42:27.886Z,6.90
2018-03-17T00:44:56.107Z,8.60
2018-03-17T00:47:23.559Z,4.90
2018-03-17T00:49:51.016Z,10.03
2018-03-17T00:52:18.482Z,6.03
2018-03-17T00:54:45.932Z,8.10
2018-03-17T00:57:13.382Z,7.93
2018-03-17T00:59:40.844Z,5.87
2018-03-17T01:02:08.291Z,5.30
2018-03-17T01:04:35.747Z,4.60
2018-03-17T01:07:03.204Z,4.17
2018-03-17T01:09:30.654Z,5.20
2018-03-17T01:11:58.107Z,4.40
2018-03-17T01:14:26.317Z,4.50
2018-03-17T01:16:53.772Z,3.97
2018-03-17T01:19:21.222Z,4.93
2018-03-17T01:21:48.676Z,4.20
2018-03-17T01:24:16.127Z,5.43
2018-03-17T01:26:43.574Z,5.70
2018-03-17T01:29:11.026Z,4.03
2018-03-17T01:31:38.480Z,5.67
2018-03-17T01:34:06.702Z,4.43
2018-03-17T01:36:34.205Z,4.23
2018-03-17T01:39:01.611Z,6.30
2018-03-17T01:41:29.054Z,5.70
2018-03-17T01:43:56.511Z,3.47
2018-03-17T01:46:23.955Z,4.03
2018-03-17T01:48:51.414Z,3.17
2018-03-17T01:51:18.861Z,15.50
2018-03-17T01:53:47.089Z,4.63
2018-03-17T01:56:14.550Z,5.17
2018-03-17T01:58:42.003Z,4.10
2018-03-17T02:01:09.458Z,3.83
2018-03-17T02:03:36.906Z,4.70
2018-03-17T02:06:04.362Z,6.60
2018-03-17T02:08:31.815Z,4.33
2018-03-17T02:10:59.278Z,4.83
2018-03-17T02:13:26.730Z,6.90
2018-03-17T02:15:54.186Z,3.40
2018-03-17T02:18:21.642Z,4.97
2018-03-17T02:20:49.095Z,4.33
2018-03-17T02:23:16.550Z,5.00
2018-03-17T02:25:43.998Z,5.90
2018-03-17T02:28:11.442Z,5.90
2018-03-17T02:30:39.660Z,4.60
2018-03-17T02:33:07.106Z,3.90
2018-03-17T02:35:34.570Z,4.80
2018-03-17T02:38:02.017Z,4.33
2018-03-17T02:40:29.467Z,4.37
2018-03-17T02:42:56.915Z,4.30
2018-03-17T02:45:25.137Z,4.60
2018-03-17T02:47:52.591Z,4.20
2018-03-17T02:50:20.040Z,4.80
2018-03-17T02:52:47.492Z,3.63
2018-03-17T02:55:15.013Z,5.13
2018-03-17T02:57:42.394Z,4.33
2018-03-17T03:00:09.844Z,5.07
2018-03-17T03:02:37.286Z,5.60
2018-03-17T03:05:05.506Z,3.90
2018-03-17T03:07:32.951Z,4.70
2018-03-17T03:10:00.399Z,4.83
2018-03-17T03:12:27.854Z,4.10
2018-03-17T03:14:55.311Z,4.07
2018-03-17T03:17:22.763Z,3.97
2018-03-17T03:19:50.992Z,4.93
2018-03-17T03:22:18.434Z,4.57
2018-03-17T03:24:45.898Z,3.63
2018-03-17T03:27:13.337Z,4.20
2018-03-17T03:29:40.794Z,6.53
2018-03-17T03:32:08.238Z,7.07
2018-03-17T03:34:35.694Z,6.03
2018-03-17T03:37:03.141Z,4.57
2018-03-17T03:39:30.599Z,4.57
2018-03-17T03:41:58.067Z,9.13
2018-03-17T03:44:25.518Z,4.27
2018-03-17T03:46:53.738Z,5.07
2018-03-17T03:49:21.202Z,5.90
2018-03-17T03:51:48.662Z,5.20
2018-03-17T03:54:16.115Z,5.80
2018-03-17T03:56:43.574Z,5.00
2018-03-17T03:59:11.026Z,4.50
2018-03-17T04:01:38.494Z,6.47
2018-03-17T04:04:05.948Z,9.17
2018-03-17T04:06:33.406Z,4.77
2018-03-17T04:09:00.857Z,4.67
2018-03-17T04:11:28.313Z,3.80
2018-03-17T04:13:55.775Z,4.07
2018-03-17T04:16:23.222Z,4.70
2018-03-17T04:18:50.674Z,3.80
2018-03-17T04:21:18.134Z,3.63
2018-03-17T04:23:45.583Z,4.37
2018-03-17T04:26:13.045Z,6.53
2018-03-17T04:28:40.505Z,3.80
2018-03-17T04:31:07.954Z,7.73
2018-03-17T04:33:35.402Z,4.00
2018-03-17T04:36:02.857Z,4.10
2018-03-17T04:38:30.326Z,4.07
2018-03-17T04:40:57.786Z,4.40
2018-03-17T04:43:25.246Z,5.57
2018-03-17T04:45:52.698Z,7.20
2018-03-17T04:48:20.150Z,5.70
2018-03-17T04:50:47.615Z,10.00
2018-03-17T04:53:15.057Z,6.43
2018-03-17T04:55:42.516Z,8.07
2018-03-17T04:58:09.966Z,9.40
2018-03-17T05:00:38.190Z,8.67
2018-03-17T05:03:05.644Z,6.90
2018-03-17T05:05:33.092Z,10.57
2018-03-17T05:08:00.550Z,26.13
2018-03-17T05:10:28.021Z,36.97
2018-03-17T05:12:55.479Z,35.47
2018-03-17T05:15:22.941Z,35.03
2018-03-17T05:17:50.410Z,30.55
2018-03-17T05:20:17.865Z,25.50
2018-03-17T05:22:45.321Z,33.27
2018-03-17T05:25:12.769Z,38.10
2018-03-17T05:27:40.233Z,39.47
2018-03-17T05:30:07.685Z,55.27
2018-03-17T05:35:02.176Z,43.70
2018-03-17T05:37:29.651Z,83.37
2018-03-17T05:39:57.880Z,93.55
2018-03-17T05:42:26.118Z,100.70
2018-03-17T05:44:53.578Z,97.47
2018-03-17T05:47:21.050Z,112.93
2018-03-17T05:49:48.506Z,145.12
2018-03-17T05:52:16.021Z,140.00
2018-03-17T05:54:44.227Z,111.60
2018-03-17T05:57:11.697Z,124.93
2018-03-17T05:59:39.153Z,126.93
2018-03-17T06:02:06.625Z,102.03
2018-03-17T06:04:34.851Z,150.15
2018-03-17T06:07:02.326Z,120.77
2018-03-17T06:09:29.794Z,120.85
2018-03-17T06:11:57.252Z,139.07
2018-03-17T06:14:24.706Z,138.90
2018-03-17T06:16:52.187Z,133.25
2018-03-17T06:19:20.410Z,112.72
2018-03-17T06:21:47.874Z,139.77
2018-03-17T06:24:15.342Z,145.00
2018-03-17T06:26:42.798Z,110.15
2018-03-17T06:29:10.267Z,111.80
2018-03-17T06:31:37.734Z,116.35
2018-03-17T06:34:05.185Z,119.65
2018-03-17T06:36:32.663Z,112.88
2018-03-17T06:39:00.165Z,89.78
2018-03-17T06:41:27.606Z,110.83
2018-03-17T06:43:55.079Z,81.25
2018-03-17T06:46:22.560Z,112.65
2018-03-17T06:48:50.017Z,117.55
2018-03-17T06:51:17.478Z,100.90
2018-03-17T06:53:44.934Z,102.40
2018-03-17T06:56:12.401Z,97.95
2018-03-17T06:58:39.872Z,144.85
2018-03-17T07:01:07.328Z,91.07
2018-03-17T07:18:18.398Z,74.40
2018-03-17T07:20:45.871Z,59.00
2018-03-17T07:23:13.334Z,103.07
2018-03-17T07:25:40.800Z,81.12
2018-03-17T07:28:08.271Z,78.37
2018-03-17T07:30:36.498Z,75.00
2018-03-17T07:33:03.976Z,103.20
2018-03-17T07:35:31.444Z,77.12
2018-03-17T07:37:58.907Z,74.97
2018-03-17T07:40:26.369Z,81.93
2018-03-17T07:42:53.829Z,92.35
2018-03-17T07:45:22.052Z,83.22
2018-03-17T07:47:49.515Z,63.00
2018-03-17T07:50:16.985Z,77.65
2018-03-17T07:52:44.448Z,63.42
2018-03-17T07:55:11.905Z,70.10
2018-03-17T07:57:39.370Z,78.47
2018-03-17T08:00:06.827Z,72.05
2018-03-17T08:02:34.299Z,88.15
2018-03-17T08:05:01.761Z,82.15
2018-03-17T08:07:29.223Z,77.55
2018-03-17T08:09:56.695Z,68.28
2018-03-17T08:12:24.925Z,65.78
2018-03-17T08:14:52.388Z,73.60
2018-03-17T08:17:19.849Z,67.12
2018-03-17T08:19:47.315Z,82.82
2018-03-17T08:22:14.783Z,92.40
2018-03-17T08:24:42.243Z,82.75
2018-03-17T08:27:09.718Z,75.45
2018-03-17T08:29:37.942Z,83.47
2018-03-17T08:32:05.406Z,100.27
2018-03-17T08:34:33.629Z,83.65
2018-03-17T08:37:01.881Z,77.93
2018-03-17T08:39:29.404Z,94.65
2018-03-17T08:41:56.806Z,76.50
2018-03-17T08:44:24.273Z,85.38
2018-03-17T08:46:52.516Z,82.57
2018-03-17T08:49:19.975Z,90.10
2018-03-17T08:51:47.444Z,86.35
2018-03-17T08:54:14.901Z,85.18
2018-03-17T08:56:42.362Z,92.43
2018-03-17T08:59:09.835Z,122.60
2018-03-17T09:01:37.304Z,105.53
2018-03-17T09:04:05.524Z,88.03
2018-03-17T09:06:33.019Z,99.57
2018-03-17T09:09:00.478Z,109.15
2018-03-17T09:11:27.943Z,93.25
2018-03-17T09:13:55.414Z,85.45
2018-03-17T09:16:23.648Z,81.03
2018-03-17T09:18:51.109Z,85.50
2018-03-17T09:21:18.563Z,93.10
2018-03-17T09:23:46.020Z,90.10
2018-03-17T09:26:13.474Z,89.78
2018-03-17T09:28:40.940Z,90.00
2018-03-17T09:31:08.393Z,91.60
2018-03-17T09:33:35.858Z,86.00
2018-03-17T16:53:27.390Z,22.20
2018-03-17T16:55:55.619Z,22.80
2018-03-17T17:15:32.908Z,20.27
2018-03-17T17:18:00.365Z,26.30
2018-03-17T17:20:27.834Z,26.02
2018-03-17T17:22:55.295Z,27.65
2018-03-17T17:25:22.765Z,29.50
2018-03-17T17:27:50.233Z,31.30
2018-03-17T17:30:17.703Z,28.25
2018-03-17T17:32:45.161Z,28.95
2018-03-17T17:35:12.630Z,27.08
2018-03-17T17:37:40.855Z,27.58
2018-03-17T17:40:08.311Z,25.75
2018-03-17T17:42:35.775Z,28.02
2018-03-17T17:45:03.240Z,27.80
2018-03-17T17:47:30.703Z,26.10
2018-03-17T17:49:58.169Z,27.85
2018-03-17T17:52:25.639Z,29.92
2018-03-17T17:54:53.094Z,30.75
2018-03-17T17:57:20.574Z,32.15
2018-03-17T17:59:48.793Z,27.87
2018-03-17T18:02:16.273Z,36.60
2018-03-17T18:04:43.739Z,26.00
2018-03-17T18:07:11.235Z,29.50
2018-03-17T18:09:39.455Z,29.10
2018-03-17T18:12:06.911Z,27.65
2018-03-17T18:14:34.378Z,26.42
2018-03-17T18:17:01.839Z,27.48
2018-03-17T18:19:29.306Z,26.42
2018-03-17T18:21:56.762Z,28.60
2018-03-17T18:24:24.241Z,26.42
2018-03-17T18:26:51.699Z,29.30
2018-03-17T18:29:19.951Z,29.27
2018-03-17T18:31:48.190Z,32.22
2018-03-17T18:34:15.650Z,31.23
2018-03-17T18:36:43.118Z,28.30
2018-03-17T18:39:10.577Z,28.35
2018-03-17T18:41:38.034Z,28.50
2018-03-17T18:44:05.509Z,31.20
2018-03-17T18:46:32.970Z,29.90
2018-03-17T18:49:00.433Z,28.73
2018-03-17T18:51:27.894Z,26.90
2018-03-17T18:53:55.359Z,26.62
2018-03-17T18:56:22.818Z,26.52
2018-03-17T18:58:50.286Z,26.73
2018-03-17T19:01:17.738Z,29.42
2018-03-17T19:03:45.204Z,24.58
2018-03-17T19:06:12.649Z,29.50
2018-03-17T19:08:40.119Z,26.52
2018-03-17T19:11:07.578Z,25.17
2018-03-17T19:13:35.062Z,25.05
2018-03-17T19:16:02.525Z,26.52
2018-03-17T19:18:29.998Z,27.17
2018-03-17T19:20:57.488Z,24.75
2018-03-17T19:23:24.935Z,28.35
2018-03-17T19:25:52.394Z,23.52
2018-03-17T19:28:19.866Z,24.90
2018-03-17T19:30:47.334Z,26.98
2018-03-17T19:33:14.800Z,22.35
2018-03-17T19:35:42.280Z,23.50
2018-03-17T19:38:10.500Z,22.30
2018-03-17T19:40:37.957Z,23.45
2018-03-17T19:43:05.424Z,23.08
2018-03-17T19:45:32.882Z,22.37
2018-03-17T19:48:00.338Z,23.50
2018-03-17T19:50:27.809Z,23.45
2018-03-17T19:52:55.265Z,22.17
2018-03-17T19:55:22.754Z,22.02
2018-03-17T19:57:50.984Z,22.10
2018-03-17T20:00:18.454Z,22.55
2018-03-17T20:02:45.918Z,24.95
2018-03-17T20:05:13.392Z,24.40
2018-03-17T20:07:40.849Z,26.90
2018-03-17T20:10:08.322Z,24.42
2018-03-17T20:12:36.537Z,24.05
2018-03-17T20:15:04.006Z,22.37
2018-03-17T20:17:31.470Z,24.60
2018-03-17T20:19:58.929Z,25.62
2018-03-17T20:22:26.394Z,26.10
2018-03-17T20:24:53.849Z,27.90
2018-03-17T20:27:22.158Z,28.20
2018-03-17T20:29:49.632Z,25.13
2018-03-17T20:34:44.862Z,30.77
2018-03-17T20:37:12.324Z,36.50
2018-03-17T20:39:39.782Z,32.95
2018-03-17T20:42:07.238Z,35.20
2018-03-17T20:44:34.716Z,31.05
2018-03-17T20:47:02.167Z,34.28
2018-03-17T20:49:29.629Z,35.20
2018-03-17T20:51:57.094Z,33.93
2018-03-17T20:54:24.557Z,32.57
2018-03-17T20:56:52.013Z,31.70
2018-03-17T20:59:19.465Z,30.30
2018-03-17T21:01:46.932Z,27.97
2018-03-17T21:04:14.447Z,34.20
2018-03-17T21:06:41.854Z,37.00
2018-03-17T21:09:09.323Z,36.13
2018-03-17T21:11:36.777Z,35.60
2018-03-17T21:14:05.042Z,35.27
2018-03-17T21:16:32.495Z,32.30
2018-03-17T21:18:59.953Z,42.70
2018-03-17T21:21:27.420Z,37.20
2018-03-17T21:23:54.881Z,42.27
2018-03-17T21:26:23.039Z,35.67
2018-03-17T21:28:50.500Z,37.70
2018-03-17T21:31:17.962Z,37.13
2018-03-17T21:33:45.426Z,39.90
2018-03-17T21:36:12.896Z,37.43
2018-03-17T21:38:40.362Z,36.43
2018-03-17T21:41:07.825Z,39.90
2018-03-17T21:43:35.286Z,29.50
2018-03-17T21:46:02.758Z,40.73
2018-03-17T21:48:30.992Z,35.70
2018-03-17T21:50:58.457Z,36.33
2018-03-17T21:53:25.920Z,37.27
2018-03-17T21:55:54.159Z,36.13
2018-03-17T21:58:21.630Z,33.90
2018-03-17T22:00:49.114Z,37.53
2018-03-17T22:03:16.574Z,39.57
2018-03-17T22:05:44.042Z,35.63
2018-03-17T22:08:11.502Z,34.00
2018-03-17T22:10:38.966Z,35.40
2018-03-17T22:13:06.416Z,38.63
2018-03-17T22:15:33.880Z,31.20
2018-03-17T22:18:01.321Z,35.63
2018-03-17T22:20:28.797Z,32.00
2018-03-17T22:22:57.018Z,33.87
2018-03-17T22:25:24.490Z,35.83
2018-03-17T22:27:51.945Z,34.67
2018-03-17T22:30:19.417Z,34.77
2018-03-17T22:32:46.874Z,33.03
2018-03-17T22:35:14.349Z,40.70
2018-03-17T22:37:41.804Z,34.37
2018-03-17T22:40:09.273Z,36.00
2018-03-17T22:42:36.728Z,33.10
2018-03-17T22:45:04.192Z,30.93
2018-03-17T22:47:31.656Z,30.77
2018-03-17T22:49:59.114Z,35.00
2018-03-17T22:52:26.566Z,38.13
2018-03-17T22:54:54.025Z,35.28
2018-03-17T22:57:21.481Z,31.43
2018-03-17T22:59:48.947Z,33.10
2018-03-17T23:02:16.406Z,32.47
2018-03-17T23:04:43.872Z,34.00
2018-03-17T23:07:12.109Z,33.87
2018-03-17T23:09:39.630Z,50.07
2018-03-17T23:12:07.027Z,32.17
2018-03-17T23:14:34.498Z,29.50
2018-03-17T23:17:01.962Z,30.57
2018-03-17T23:19:29.414Z,35.50
2018-03-17T23:21:56.890Z,34.73
2018-03-17T23:24:24.342Z,34.53
2018-03-17T23:26:51.819Z,30.60
2018-03-17T23:29:20.038Z,33.10
2018-03-17T23:31:47.503Z,31.40
2018-03-17T23:34:14.962Z,37.90
2018-03-17T23:36:42.421Z,30.17
2018-03-17T23:39:09.869Z,30.47
2018-03-17T23:41:37.346Z,32.93
2018-03-17T23:44:04.807Z,31.27
2018-03-17T23:46:32.275Z,30.20
2018-03-17T23:48:59.748Z,31.87
2018-03-17T23:51:27.217Z,34.67
2018-03-17T23:53:55.429Z,38.47
2018-03-17T23:56:23.829Z,37.90
2018-03-17T23:58:51.289Z,29.33
